<?xml version="1.0" encoding="UTF-8" standalone="no" ?>
<gpx xmlns="http://www.topografix.com/GPX/1/1" xmlns:xsi="http://www.w3.org/2001/XMLSchema-instance" xsi:schemaLocation="http://www.topografix.com/GPX/1/1 http://www.topografix.com/GPX/1/1/gpx.xsd" version="1.1" creator="VisuGPX - https://www.visugpx.com">
  <metadata>
    <name>Jarnioux </name>
    <desc><![CDATA[Boucle à parir de Jarnioux]]></desc>
  </metadata>
  <trk>
    <name><![CDATA[Sequence 1]]></name>
    <trkseg>
      <trkpt lat="45.9667" lon="4.62336">
        <ele>313</ele>
        <time>2015-11-24T18:57:18Z</time>
      </trkpt>
      <trkpt lat="45.96661" lon="4.62317">
        <ele>314</ele>
        <time>2015-11-24T18:57:24Z</time>
      </trkpt>
      <trkpt lat="45.96624" lon="4.6232">
        <ele>318</ele>
        <time>2015-11-24T18:57:34Z</time>
      </trkpt>
      <trkpt lat="45.96619" lon="4.62337">
        <ele>316</ele>
        <time>2015-11-24T18:57:39Z</time>
      </trkpt>
      <trkpt lat="45.96607" lon="4.62358">
        <ele>318</ele>
        <time>2015-11-24T18:57:44Z</time>
      </trkpt>
      <trkpt lat="45.96613" lon="4.62386">
        <ele>314</ele>
        <time>2015-11-24T18:57:52Z</time>
      </trkpt>
      <trkpt lat="45.96609" lon="4.62401">
        <ele>313</ele>
        <time>2015-11-24T18:57:56Z</time>
      </trkpt>
      <trkpt lat="45.96605" lon="4.62425">
        <ele>311</ele>
        <time>2015-11-24T18:58:02Z</time>
      </trkpt>
      <trkpt lat="45.96599" lon="4.6245">
        <ele>310</ele>
        <time>2015-11-24T18:58:08Z</time>
      </trkpt>
      <trkpt lat="45.96582" lon="4.62487">
        <ele>311</ele>
        <time>2015-11-24T18:58:19Z</time>
      </trkpt>
      <trkpt lat="45.9658" lon="4.62488">
        <ele>311</ele>
        <time>2015-11-24T18:58:20Z</time>
      </trkpt>
      <trkpt lat="45.96574" lon="4.62509">
        <ele>310</ele>
        <time>2015-11-24T18:58:26Z</time>
      </trkpt>
      <trkpt lat="45.96565" lon="4.62539">
        <ele>311</ele>
        <time>2015-11-24T18:58:33Z</time>
      </trkpt>
      <trkpt lat="45.9656" lon="4.62573">
        <ele>310</ele>
        <time>2015-11-24T18:58:43Z</time>
      </trkpt>
      <trkpt lat="45.96558" lon="4.62576">
        <ele>310</ele>
        <time>2015-11-24T18:58:44Z</time>
      </trkpt>
      <trkpt lat="45.96549" lon="4.62595">
        <ele>310</ele>
        <time>2015-11-24T18:58:50Z</time>
      </trkpt>
      <trkpt lat="45.96527" lon="4.62636">
        <ele>312</ele>
        <time>2015-11-24T18:59:01Z</time>
      </trkpt>
      <trkpt lat="45.96526" lon="4.62638">
        <ele>312</ele>
        <time>2015-11-24T18:59:02Z</time>
      </trkpt>
      <trkpt lat="45.96516" lon="4.62647">
        <ele>313</ele>
        <time>2015-11-24T18:59:08Z</time>
      </trkpt>
      <trkpt lat="45.96508" lon="4.6266">
        <ele>313</ele>
        <time>2015-11-24T18:59:14Z</time>
      </trkpt>
      <trkpt lat="45.96491" lon="4.62688">
        <ele>313</ele>
        <time>2015-11-24T18:59:24Z</time>
      </trkpt>
      <trkpt lat="45.96484" lon="4.62697">
        <ele>314</ele>
        <time>2015-11-24T18:59:27Z</time>
      </trkpt>
      <trkpt lat="45.96476" lon="4.62718">
        <ele>311</ele>
        <time>2015-11-24T18:59:32Z</time>
      </trkpt>
      <trkpt lat="45.96467" lon="4.62744">
        <ele>308</ele>
        <time>2015-11-24T18:59:40Z</time>
      </trkpt>
      <trkpt lat="45.96455" lon="4.62766">
        <ele>306</ele>
        <time>2015-11-24T18:59:46Z</time>
      </trkpt>
      <trkpt lat="45.96447" lon="4.62778">
        <ele>306</ele>
        <time>2015-11-24T18:59:50Z</time>
      </trkpt>
      <trkpt lat="45.96435" lon="4.6281">
        <ele>303</ele>
        <time>2015-11-24T18:59:59Z</time>
      </trkpt>
      <trkpt lat="45.96427" lon="4.62824">
        <ele>302</ele>
        <time>2015-11-24T19:00:04Z</time>
      </trkpt>
      <trkpt lat="45.96419" lon="4.62841">
        <ele>301</ele>
        <time>2015-11-24T19:00:09Z</time>
      </trkpt>
      <trkpt lat="45.96411" lon="4.62858">
        <ele>300</ele>
        <time>2015-11-24T19:00:15Z</time>
      </trkpt>
      <trkpt lat="45.96403" lon="4.62888">
        <ele>299</ele>
        <time>2015-11-24T19:00:23Z</time>
      </trkpt>
      <trkpt lat="45.964" lon="4.62897">
        <ele>299</ele>
        <time>2015-11-24T19:00:26Z</time>
      </trkpt>
      <trkpt lat="45.96397" lon="4.62939">
        <ele>297</ele>
        <time>2015-11-24T19:00:36Z</time>
      </trkpt>
      <trkpt lat="45.96394" lon="4.62948">
        <ele>297</ele>
        <time>2015-11-24T19:00:38Z</time>
      </trkpt>
      <trkpt lat="45.96398" lon="4.6297">
        <ele>296</ele>
        <time>2015-11-24T19:00:44Z</time>
      </trkpt>
      <trkpt lat="45.96402" lon="4.63012">
        <ele>295</ele>
        <time>2015-11-24T19:00:54Z</time>
      </trkpt>
      <trkpt lat="45.96396" lon="4.63029">
        <ele>295</ele>
        <time>2015-11-24T19:00:57Z</time>
      </trkpt>
      <trkpt lat="45.964" lon="4.63046">
        <ele>294</ele>
        <time>2015-11-24T19:01:02Z</time>
      </trkpt>
      <trkpt lat="45.96384" lon="4.63086">
        <ele>292</ele>
        <time>2015-11-24T19:01:13Z</time>
      </trkpt>
      <trkpt lat="45.96377" lon="4.63102">
        <ele>291</ele>
        <time>2015-11-24T19:01:19Z</time>
      </trkpt>
      <trkpt lat="45.96373" lon="4.63109">
        <ele>291</ele>
        <time>2015-11-24T19:01:21Z</time>
      </trkpt>
      <trkpt lat="45.96364" lon="4.63128">
        <ele>291</ele>
        <time>2015-11-24T19:01:26Z</time>
      </trkpt>
      <trkpt lat="45.96355" lon="4.63149">
        <ele>290</ele>
        <time>2015-11-24T19:01:32Z</time>
      </trkpt>
      <trkpt lat="45.96342" lon="4.63176">
        <ele>289</ele>
        <time>2015-11-24T19:01:40Z</time>
      </trkpt>
      <trkpt lat="45.96339" lon="4.6319">
        <ele>288</ele>
        <time>2015-11-24T19:01:44Z</time>
      </trkpt>
      <trkpt lat="45.96327" lon="4.63231">
        <ele>288</ele>
        <time>2015-11-24T19:01:53Z</time>
      </trkpt>
      <trkpt lat="45.9633" lon="4.63238">
        <ele>288</ele>
        <time>2015-11-24T19:01:56Z</time>
      </trkpt>
      <trkpt lat="45.96314" lon="4.63284">
        <ele>287</ele>
        <time>2015-11-24T19:02:07Z</time>
      </trkpt>
      <trkpt lat="45.96306" lon="4.63308">
        <ele>288</ele>
        <time>2015-11-24T19:02:13Z</time>
      </trkpt>
      <trkpt lat="45.96301" lon="4.63324">
        <ele>288</ele>
        <time>2015-11-24T19:02:18Z</time>
      </trkpt>
      <trkpt lat="45.96295" lon="4.63331">
        <ele>289</ele>
        <time>2015-11-24T19:02:20Z</time>
      </trkpt>
      <trkpt lat="45.96284" lon="4.6337">
        <ele>290</ele>
        <time>2015-11-24T19:02:30Z</time>
      </trkpt>
      <trkpt lat="45.96283" lon="4.63375">
        <ele>290</ele>
        <time>2015-11-24T19:02:32Z</time>
      </trkpt>
      <trkpt lat="45.96273" lon="4.63393">
        <ele>292</ele>
        <time>2015-11-24T19:02:38Z</time>
      </trkpt>
      <trkpt lat="45.96266" lon="4.63418">
        <ele>292</ele>
        <time>2015-11-24T19:02:45Z</time>
      </trkpt>
      <trkpt lat="45.96262" lon="4.63436">
        <ele>292</ele>
        <time>2015-11-24T19:02:50Z</time>
      </trkpt>
      <trkpt lat="45.96247" lon="4.63481">
        <ele>290</ele>
        <time>2015-11-24T19:03:00Z</time>
      </trkpt>
      <trkpt lat="45.96246" lon="4.63485">
        <ele>290</ele>
        <time>2015-11-24T19:03:02Z</time>
      </trkpt>
      <trkpt lat="45.96239" lon="4.63512">
        <ele>289</ele>
        <time>2015-11-24T19:03:09Z</time>
      </trkpt>
      <trkpt lat="45.96226" lon="4.63549">
        <ele>288</ele>
        <time>2015-11-24T19:03:19Z</time>
      </trkpt>
      <trkpt lat="45.96225" lon="4.63553">
        <ele>288</ele>
        <time>2015-11-24T19:03:20Z</time>
      </trkpt>
      <trkpt lat="45.96224" lon="4.63597">
        <ele>285</ele>
        <time>2015-11-24T19:03:30Z</time>
      </trkpt>
      <trkpt lat="45.96225" lon="4.63611">
        <ele>284</ele>
        <time>2015-11-24T19:03:33Z</time>
      </trkpt>
      <trkpt lat="45.9623" lon="4.63632">
        <ele>282</ele>
        <time>2015-11-24T19:03:38Z</time>
      </trkpt>
      <trkpt lat="45.96236" lon="4.63657">
        <ele>280</ele>
        <time>2015-11-24T19:03:45Z</time>
      </trkpt>
      <trkpt lat="45.96237" lon="4.63678">
        <ele>279</ele>
        <time>2015-11-24T19:03:50Z</time>
      </trkpt>
      <trkpt lat="45.96231" lon="4.63722">
        <ele>277</ele>
        <time>2015-11-24T19:04:00Z</time>
      </trkpt>
      <trkpt lat="45.96233" lon="4.63729">
        <ele>277</ele>
        <time>2015-11-24T19:04:02Z</time>
      </trkpt>
      <trkpt lat="45.96227" lon="4.6376">
        <ele>277</ele>
        <time>2015-11-24T19:04:10Z</time>
      </trkpt>
      <trkpt lat="45.96218" lon="4.63789">
        <ele>276</ele>
        <time>2015-11-24T19:04:16Z</time>
      </trkpt>
      <trkpt lat="45.96203" lon="4.63828">
        <ele>276</ele>
        <time>2015-11-24T19:04:25Z</time>
      </trkpt>
      <trkpt lat="45.96202" lon="4.63828">
        <ele>276</ele>
        <time>2015-11-24T19:04:26Z</time>
      </trkpt>
      <trkpt lat="45.96189" lon="4.63856">
        <ele>276</ele>
        <time>2015-11-24T19:04:34Z</time>
      </trkpt>
      <trkpt lat="45.96178" lon="4.63885">
        <ele>274</ele>
        <time>2015-11-24T19:04:41Z</time>
      </trkpt>
      <trkpt lat="45.96173" lon="4.63897">
        <ele>272</ele>
        <time>2015-11-24T19:04:45Z</time>
      </trkpt>
      <trkpt lat="45.96165" lon="4.63916">
        <ele>271</ele>
        <time>2015-11-24T19:04:50Z</time>
      </trkpt>
      <trkpt lat="45.96155" lon="4.63947">
        <ele>269</ele>
        <time>2015-11-24T19:04:59Z</time>
      </trkpt>
      <trkpt lat="45.96147" lon="4.6397">
        <ele>268</ele>
        <time>2015-11-24T19:05:05Z</time>
      </trkpt>
      <trkpt lat="45.96142" lon="4.63978">
        <ele>268</ele>
        <time>2015-11-24T19:05:08Z</time>
      </trkpt>
      <trkpt lat="45.96133" lon="4.64004">
        <ele>268</ele>
        <time>2015-11-24T19:05:14Z</time>
      </trkpt>
      <trkpt lat="45.96118" lon="4.64045">
        <ele>268</ele>
        <time>2015-11-24T19:05:23Z</time>
      </trkpt>
      <trkpt lat="45.96114" lon="4.64059">
        <ele>269</ele>
        <time>2015-11-24T19:05:26Z</time>
      </trkpt>
      <trkpt lat="45.96116" lon="4.64077">
        <ele>268</ele>
        <time>2015-11-24T19:05:32Z</time>
      </trkpt>
      <trkpt lat="45.96108" lon="4.6411">
        <ele>267</ele>
        <time>2015-11-24T19:05:40Z</time>
      </trkpt>
      <trkpt lat="45.96106" lon="4.64134">
        <ele>267</ele>
        <time>2015-11-24T19:05:46Z</time>
      </trkpt>
      <trkpt lat="45.96107" lon="4.64152">
        <ele>266</ele>
        <time>2015-11-24T19:05:50Z</time>
      </trkpt>
      <trkpt lat="45.96104" lon="4.64196">
        <ele>264</ele>
        <time>2015-11-24T19:06:01Z</time>
      </trkpt>
      <trkpt lat="45.96099" lon="4.64211">
        <ele>264</ele>
        <time>2015-11-24T19:06:05Z</time>
      </trkpt>
      <trkpt lat="45.96095" lon="4.64223">
        <ele>264</ele>
        <time>2015-11-24T19:06:08Z</time>
      </trkpt>
      <trkpt lat="45.961" lon="4.64261">
        <ele>262</ele>
        <time>2015-11-24T19:06:18Z</time>
      </trkpt>
      <trkpt lat="45.96101" lon="4.64268">
        <ele>262</ele>
        <time>2015-11-24T19:06:20Z</time>
      </trkpt>
      <trkpt lat="45.96094" lon="4.643">
        <ele>261</ele>
        <time>2015-11-24T19:06:27Z</time>
      </trkpt>
      <trkpt lat="45.96094" lon="4.64345">
        <ele>260</ele>
        <time>2015-11-24T19:06:37Z</time>
      </trkpt>
      <trkpt lat="45.96098" lon="4.6436">
        <ele>260</ele>
        <time>2015-11-24T19:06:41Z</time>
      </trkpt>
      <trkpt lat="45.96092" lon="4.64376">
        <ele>260</ele>
        <time>2015-11-24T19:06:44Z</time>
      </trkpt>
      <trkpt lat="45.96087" lon="4.64409">
        <ele>259</ele>
        <time>2015-11-24T19:06:53Z</time>
      </trkpt>
      <trkpt lat="45.96082" lon="4.64441">
        <ele>258</ele>
        <time>2015-11-24T19:07:00Z</time>
      </trkpt>
      <trkpt lat="45.96081" lon="4.64445">
        <ele>258</ele>
        <time>2015-11-24T19:07:02Z</time>
      </trkpt>
      <trkpt lat="45.96073" lon="4.64479">
        <ele>257</ele>
        <time>2015-11-24T19:07:11Z</time>
      </trkpt>
      <trkpt lat="45.96065" lon="4.64504">
        <ele>256</ele>
        <time>2015-11-24T19:07:18Z</time>
      </trkpt>
      <trkpt lat="45.96053" lon="4.64528">
        <ele>255</ele>
        <time>2015-11-24T19:07:24Z</time>
      </trkpt>
      <trkpt lat="45.96049" lon="4.64533">
        <ele>255</ele>
        <time>2015-11-24T19:07:26Z</time>
      </trkpt>
      <trkpt lat="45.9604" lon="4.6455">
        <ele>255</ele>
        <time>2015-11-24T19:07:32Z</time>
      </trkpt>
      <trkpt lat="45.96027" lon="4.64582">
        <ele>254</ele>
        <time>2015-11-24T19:07:40Z</time>
      </trkpt>
      <trkpt lat="45.96023" lon="4.64598">
        <ele>254</ele>
        <time>2015-11-24T19:07:44Z</time>
      </trkpt>
      <trkpt lat="45.96015" lon="4.64626">
        <ele>254</ele>
        <time>2015-11-24T19:07:50Z</time>
      </trkpt>
      <trkpt lat="45.9602" lon="4.64657">
        <ele>253</ele>
        <time>2015-11-24T19:07:58Z</time>
      </trkpt>
      <trkpt lat="45.96029" lon="4.64674">
        <ele>253</ele>
        <time>2015-11-24T19:08:02Z</time>
      </trkpt>
      <trkpt lat="45.96025" lon="4.647">
        <ele>253</ele>
        <time>2015-11-24T19:08:08Z</time>
      </trkpt>
      <trkpt lat="45.96031" lon="4.64723">
        <ele>253</ele>
        <time>2015-11-24T19:08:14Z</time>
      </trkpt>
      <trkpt lat="45.96037" lon="4.64751">
        <ele>253</ele>
        <time>2015-11-24T19:08:21Z</time>
      </trkpt>
      <trkpt lat="45.96042" lon="4.64769">
        <ele>252</ele>
        <time>2015-11-24T19:08:26Z</time>
      </trkpt>
      <trkpt lat="45.96062" lon="4.64806">
        <ele>253</ele>
        <time>2015-11-24T19:08:35Z</time>
      </trkpt>
      <trkpt lat="45.96048" lon="4.64814">
        <ele>252</ele>
        <time>2015-11-24T19:08:38Z</time>
      </trkpt>
      <trkpt lat="45.96017" lon="4.64822">
        <ele>249</ele>
        <time>2015-11-24T19:08:46Z</time>
      </trkpt>
      <trkpt lat="45.96006" lon="4.64823">
        <ele>249</ele>
        <time>2015-11-24T19:08:50Z</time>
      </trkpt>
      <trkpt lat="45.95985" lon="4.64816">
        <ele>249</ele>
        <time>2015-11-24T19:08:57Z</time>
      </trkpt>
      <trkpt lat="45.95969" lon="4.64815">
        <ele>249</ele>
        <time>2015-11-24T19:09:02Z</time>
      </trkpt>
      <trkpt lat="45.95948" lon="4.64812">
        <ele>251</ele>
        <time>2015-11-24T19:09:12Z</time>
      </trkpt>
      <trkpt lat="45.95935" lon="4.64814">
        <ele>252</ele>
        <time>2015-11-24T19:09:16Z</time>
      </trkpt>
      <trkpt lat="45.95914" lon="4.64811">
        <ele>254</ele>
        <time>2015-11-24T19:09:25Z</time>
      </trkpt>
      <trkpt lat="45.95911" lon="4.6481">
        <ele>254</ele>
        <time>2015-11-24T19:09:26Z</time>
      </trkpt>
      <trkpt lat="45.95888" lon="4.64813">
        <ele>256</ele>
        <time>2015-11-24T19:09:35Z</time>
      </trkpt>
      <trkpt lat="45.95881" lon="4.64814">
        <ele>257</ele>
        <time>2015-11-24T19:09:38Z</time>
      </trkpt>
      <trkpt lat="45.95867" lon="4.64816">
        <ele>259</ele>
        <time>2015-11-24T19:09:44Z</time>
      </trkpt>
      <trkpt lat="45.95857" lon="4.64829">
        <ele>260</ele>
        <time>2015-11-24T19:09:50Z</time>
      </trkpt>
      <trkpt lat="45.9585" lon="4.64847">
        <ele>261</ele>
        <time>2015-11-24T19:09:57Z</time>
      </trkpt>
      <trkpt lat="45.95849" lon="4.64864">
        <ele>262</ele>
        <time>2015-11-24T19:10:02Z</time>
      </trkpt>
      <trkpt lat="45.95847" lon="4.64882">
        <ele>262</ele>
        <time>2015-11-24T19:10:08Z</time>
      </trkpt>
      <trkpt lat="45.95843" lon="4.64924">
        <ele>262</ele>
        <time>2015-11-24T19:10:19Z</time>
      </trkpt>
      <trkpt lat="45.95836" lon="4.64946">
        <ele>264</ele>
        <time>2015-11-24T19:10:24Z</time>
      </trkpt>
      <trkpt lat="45.95833" lon="4.64946">
        <ele>264</ele>
        <time>2015-11-24T19:10:26Z</time>
      </trkpt>
      <trkpt lat="45.95817" lon="4.64954">
        <ele>267</ele>
        <time>2015-11-24T19:10:32Z</time>
      </trkpt>
      <trkpt lat="45.95795" lon="4.64929">
        <ele>271</ele>
        <time>2015-11-24T19:10:42Z</time>
      </trkpt>
      <trkpt lat="45.95792" lon="4.64922">
        <ele>271</ele>
        <time>2015-11-24T19:10:44Z</time>
      </trkpt>
      <trkpt lat="45.95786" lon="4.64909">
        <ele>272</ele>
        <time>2015-11-24T19:10:50Z</time>
      </trkpt>
      <trkpt lat="45.95779" lon="4.64891">
        <ele>274</ele>
        <time>2015-11-24T19:10:56Z</time>
      </trkpt>
      <trkpt lat="45.95771" lon="4.64876">
        <ele>275</ele>
        <time>2015-11-24T19:11:02Z</time>
      </trkpt>
      <trkpt lat="45.95765" lon="4.64854">
        <ele>276</ele>
        <time>2015-11-24T19:11:09Z</time>
      </trkpt>
      <trkpt lat="45.95761" lon="4.64838">
        <ele>277</ele>
        <time>2015-11-24T19:11:14Z</time>
      </trkpt>
      <trkpt lat="45.95755" lon="4.64819">
        <ele>278</ele>
        <time>2015-11-24T19:11:20Z</time>
      </trkpt>
      <trkpt lat="45.95749" lon="4.64806">
        <ele>279</ele>
        <time>2015-11-24T19:11:26Z</time>
      </trkpt>
      <trkpt lat="45.95746" lon="4.64778">
        <ele>280</ele>
        <time>2015-11-24T19:11:35Z</time>
      </trkpt>
      <trkpt lat="45.9574" lon="4.64766">
        <ele>281</ele>
        <time>2015-11-24T19:11:39Z</time>
      </trkpt>
      <trkpt lat="45.95735" lon="4.64734">
        <ele>282</ele>
        <time>2015-11-24T19:11:48Z</time>
      </trkpt>
      <trkpt lat="45.95734" lon="4.64706">
        <ele>282</ele>
        <time>2015-11-24T19:11:55Z</time>
      </trkpt>
      <trkpt lat="45.95735" lon="4.64705">
        <ele>282</ele>
        <time>2015-11-24T19:11:56Z</time>
      </trkpt>
      <trkpt lat="45.95728" lon="4.64672">
        <ele>284</ele>
        <time>2015-11-24T19:12:05Z</time>
      </trkpt>
      <trkpt lat="45.95727" lon="4.64664">
        <ele>285</ele>
        <time>2015-11-24T19:12:08Z</time>
      </trkpt>
      <trkpt lat="45.95721" lon="4.64641">
        <ele>287</ele>
        <time>2015-11-24T19:12:14Z</time>
      </trkpt>
      <trkpt lat="45.95716" lon="4.64614">
        <ele>289</ele>
        <time>2015-11-24T19:12:21Z</time>
      </trkpt>
      <trkpt lat="45.95715" lon="4.64594">
        <ele>289</ele>
        <time>2015-11-24T19:12:28Z</time>
      </trkpt>
      <trkpt lat="45.95712" lon="4.64579">
        <ele>290</ele>
        <time>2015-11-24T19:12:32Z</time>
      </trkpt>
      <trkpt lat="45.95708" lon="4.64557">
        <ele>291</ele>
        <time>2015-11-24T19:12:38Z</time>
      </trkpt>
      <trkpt lat="45.95702" lon="4.64534">
        <ele>293</ele>
        <time>2015-11-24T19:12:44Z</time>
      </trkpt>
      <trkpt lat="45.95693" lon="4.64498">
        <ele>294</ele>
        <time>2015-11-24T19:12:55Z</time>
      </trkpt>
      <trkpt lat="45.95692" lon="4.64497">
        <ele>294</ele>
        <time>2015-11-24T19:12:56Z</time>
      </trkpt>
      <trkpt lat="45.95679" lon="4.64481">
        <ele>296</ele>
        <time>2015-11-24T19:13:03Z</time>
      </trkpt>
      <trkpt lat="45.95671" lon="4.64462">
        <ele>297</ele>
        <time>2015-11-24T19:13:09Z</time>
      </trkpt>
      <trkpt lat="45.95656" lon="4.64435">
        <ele>298</ele>
        <time>2015-11-24T19:13:18Z</time>
      </trkpt>
      <trkpt lat="45.95652" lon="4.64429">
        <ele>299</ele>
        <time>2015-11-24T19:13:20Z</time>
      </trkpt>
      <trkpt lat="45.95643" lon="4.64409">
        <ele>299</ele>
        <time>2015-11-24T19:13:27Z</time>
      </trkpt>
      <trkpt lat="45.95635" lon="4.64398">
        <ele>299</ele>
        <time>2015-11-24T19:13:32Z</time>
      </trkpt>
      <trkpt lat="45.9562" lon="4.64382">
        <ele>300</ele>
        <time>2015-11-24T19:13:39Z</time>
      </trkpt>
      <trkpt lat="45.9561" lon="4.64366">
        <ele>301</ele>
        <time>2015-11-24T19:13:44Z</time>
      </trkpt>
      <trkpt lat="45.95598" lon="4.64347">
        <ele>301</ele>
        <time>2015-11-24T19:13:52Z</time>
      </trkpt>
      <trkpt lat="45.95587" lon="4.64337">
        <ele>301</ele>
        <time>2015-11-24T19:13:57Z</time>
      </trkpt>
      <trkpt lat="45.95576" lon="4.64326">
        <ele>301</ele>
        <time>2015-11-24T19:14:02Z</time>
      </trkpt>
      <trkpt lat="45.95562" lon="4.64315">
        <ele>301</ele>
        <time>2015-11-24T19:14:10Z</time>
      </trkpt>
      <trkpt lat="45.95546" lon="4.64312">
        <ele>302</ele>
        <time>2015-11-24T19:14:14Z</time>
      </trkpt>
      <trkpt lat="45.95531" lon="4.64305">
        <ele>302</ele>
        <time>2015-11-24T19:14:20Z</time>
      </trkpt>
      <trkpt lat="45.95514" lon="4.64291">
        <ele>303</ele>
        <time>2015-11-24T19:14:26Z</time>
      </trkpt>
      <trkpt lat="45.95499" lon="4.64276">
        <ele>303</ele>
        <time>2015-11-24T19:14:36Z</time>
      </trkpt>
      <trkpt lat="45.95498" lon="4.64272">
        <ele>303</ele>
        <time>2015-11-24T19:14:38Z</time>
      </trkpt>
      <trkpt lat="45.95487" lon="4.64245">
        <ele>304</ele>
        <time>2015-11-24T19:14:44Z</time>
      </trkpt>
      <trkpt lat="45.95471" lon="4.64205">
        <ele>305</ele>
        <time>2015-11-24T19:14:54Z</time>
      </trkpt>
      <trkpt lat="45.95471" lon="4.64196">
        <ele>306</ele>
        <time>2015-11-24T19:14:57Z</time>
      </trkpt>
      <trkpt lat="45.95474" lon="4.64159">
        <ele>307</ele>
        <time>2015-11-24T19:15:04Z</time>
      </trkpt>
      <trkpt lat="45.95475" lon="4.64142">
        <ele>307</ele>
        <time>2015-11-24T19:15:09Z</time>
      </trkpt>
      <trkpt lat="45.95479" lon="4.64127">
        <ele>308</ele>
        <time>2015-11-24T19:15:14Z</time>
      </trkpt>
      <trkpt lat="45.95486" lon="4.64108">
        <ele>308</ele>
        <time>2015-11-24T19:15:20Z</time>
      </trkpt>
      <trkpt lat="45.95491" lon="4.64076">
        <ele>309</ele>
        <time>2015-11-24T19:15:29Z</time>
      </trkpt>
      <trkpt lat="45.95494" lon="4.6407">
        <ele>310</ele>
        <time>2015-11-24T19:15:32Z</time>
      </trkpt>
      <trkpt lat="45.95497" lon="4.64037">
        <ele>310</ele>
        <time>2015-11-24T19:15:40Z</time>
      </trkpt>
      <trkpt lat="45.95499" lon="4.6402">
        <ele>310</ele>
        <time>2015-11-24T19:15:44Z</time>
      </trkpt>
      <trkpt lat="45.95497" lon="4.6399">
        <ele>310</ele>
        <time>2015-11-24T19:15:51Z</time>
      </trkpt>
      <trkpt lat="45.95496" lon="4.63973">
        <ele>310</ele>
        <time>2015-11-24T19:15:56Z</time>
      </trkpt>
      <trkpt lat="45.95487" lon="4.63943">
        <ele>310</ele>
        <time>2015-11-24T19:16:04Z</time>
      </trkpt>
      <trkpt lat="45.95476" lon="4.63922">
        <ele>310</ele>
        <time>2015-11-24T19:16:10Z</time>
      </trkpt>
      <trkpt lat="45.95472" lon="4.63917">
        <ele>310</ele>
        <time>2015-11-24T19:16:14Z</time>
      </trkpt>
      <trkpt lat="45.95468" lon="4.63893">
        <ele>310</ele>
        <time>2015-11-24T19:16:21Z</time>
      </trkpt>
      <trkpt lat="45.95465" lon="4.63862">
        <ele>309</ele>
        <time>2015-11-24T19:16:29Z</time>
      </trkpt>
      <trkpt lat="45.95462" lon="4.6385">
        <ele>309</ele>
        <time>2015-11-24T19:16:32Z</time>
      </trkpt>
      <trkpt lat="45.95451" lon="4.63815">
        <ele>310</ele>
        <time>2015-11-24T19:16:41Z</time>
      </trkpt>
      <trkpt lat="45.9545" lon="4.63805">
        <ele>310</ele>
        <time>2015-11-24T19:16:44Z</time>
      </trkpt>
      <trkpt lat="45.95444" lon="4.63784">
        <ele>311</ele>
        <time>2015-11-24T19:16:50Z</time>
      </trkpt>
      <trkpt lat="45.9543" lon="4.63746">
        <ele>314</ele>
        <time>2015-11-24T19:17:00Z</time>
      </trkpt>
      <trkpt lat="45.95427" lon="4.63741">
        <ele>314</ele>
        <time>2015-11-24T19:17:02Z</time>
      </trkpt>
      <trkpt lat="45.95417" lon="4.63719">
        <ele>316</ele>
        <time>2015-11-24T19:17:08Z</time>
      </trkpt>
      <trkpt lat="45.95419" lon="4.63683">
        <ele>317</ele>
        <time>2015-11-24T19:17:17Z</time>
      </trkpt>
      <trkpt lat="45.95419" lon="4.63671">
        <ele>317</ele>
        <time>2015-11-24T19:17:20Z</time>
      </trkpt>
      <trkpt lat="45.95431" lon="4.63653">
        <ele>317</ele>
        <time>2015-11-24T19:17:26Z</time>
      </trkpt>
      <trkpt lat="45.9544" lon="4.63637">
        <ele>317</ele>
        <time>2015-11-24T19:17:32Z</time>
      </trkpt>
      <trkpt lat="45.95448" lon="4.63617">
        <ele>318</ele>
        <time>2015-11-24T19:17:38Z</time>
      </trkpt>
      <trkpt lat="45.9547" lon="4.63587">
        <ele>319</ele>
        <time>2015-11-24T19:17:49Z</time>
      </trkpt>
      <trkpt lat="45.95471" lon="4.63584">
        <ele>319</ele>
        <time>2015-11-24T19:17:50Z</time>
      </trkpt>
      <trkpt lat="45.95484" lon="4.63565">
        <ele>320</ele>
        <time>2015-11-24T19:17:56Z</time>
      </trkpt>
      <trkpt lat="45.95495" lon="4.6355">
        <ele>319</ele>
        <time>2015-11-24T19:18:02Z</time>
      </trkpt>
      <trkpt lat="45.95506" lon="4.63531">
        <ele>320</ele>
        <time>2015-11-24T19:18:09Z</time>
      </trkpt>
      <trkpt lat="45.95513" lon="4.63504">
        <ele>320</ele>
        <time>2015-11-24T19:18:16Z</time>
      </trkpt>
      <trkpt lat="45.95515" lon="4.63467">
        <ele>321</ele>
        <time>2015-11-24T19:18:25Z</time>
      </trkpt>
      <trkpt lat="45.95516" lon="4.63451">
        <ele>322</ele>
        <time>2015-11-24T19:18:30Z</time>
      </trkpt>
      <trkpt lat="45.95516" lon="4.63445">
        <ele>322</ele>
        <time>2015-11-24T19:18:32Z</time>
      </trkpt>
      <trkpt lat="45.95513" lon="4.63425">
        <ele>323</ele>
        <time>2015-11-24T19:18:38Z</time>
      </trkpt>
      <trkpt lat="45.9551" lon="4.63402">
        <ele>323</ele>
        <time>2015-11-24T19:18:44Z</time>
      </trkpt>
      <trkpt lat="45.95501" lon="4.63364">
        <ele>324</ele>
        <time>2015-11-24T19:18:52Z</time>
      </trkpt>
      <trkpt lat="45.955" lon="4.63332">
        <ele>323</ele>
        <time>2015-11-24T19:19:00Z</time>
      </trkpt>
      <trkpt lat="45.95498" lon="4.63326">
        <ele>323</ele>
        <time>2015-11-24T19:19:02Z</time>
      </trkpt>
      <trkpt lat="45.95493" lon="4.63303">
        <ele>324</ele>
        <time>2015-11-24T19:19:09Z</time>
      </trkpt>
      <trkpt lat="45.95492" lon="4.63286">
        <ele>323</ele>
        <time>2015-11-24T19:19:14Z</time>
      </trkpt>
      <trkpt lat="45.95486" lon="4.63267">
        <ele>325</ele>
        <time>2015-11-24T19:19:20Z</time>
      </trkpt>
      <trkpt lat="45.95477" lon="4.63252">
        <ele>326</ele>
        <time>2015-11-24T19:19:26Z</time>
      </trkpt>
      <trkpt lat="45.95468" lon="4.63219">
        <ele>325</ele>
        <time>2015-11-24T19:19:36Z</time>
      </trkpt>
      <trkpt lat="45.95463" lon="4.63206">
        <ele>325</ele>
        <time>2015-11-24T19:19:40Z</time>
      </trkpt>
      <trkpt lat="45.95451" lon="4.63189">
        <ele>327</ele>
        <time>2015-11-24T19:19:46Z</time>
      </trkpt>
      <trkpt lat="45.95442" lon="4.63171">
        <ele>328</ele>
        <time>2015-11-24T19:19:51Z</time>
      </trkpt>
      <trkpt lat="45.95438" lon="4.63158">
        <ele>328</ele>
        <time>2015-11-24T19:19:56Z</time>
      </trkpt>
      <trkpt lat="45.95428" lon="4.63144">
        <ele>331</ele>
        <time>2015-11-24T19:20:02Z</time>
      </trkpt>
      <trkpt lat="45.95423" lon="4.63108">
        <ele>331</ele>
        <time>2015-11-24T19:20:09Z</time>
      </trkpt>
      <trkpt lat="45.95408" lon="4.63098">
        <ele>335</ele>
        <time>2015-11-24T19:20:17Z</time>
      </trkpt>
      <trkpt lat="45.95397" lon="4.63068">
        <ele>336</ele>
        <time>2015-11-24T19:20:25Z</time>
      </trkpt>
      <trkpt lat="45.95396" lon="4.63055">
        <ele>335</ele>
        <time>2015-11-24T19:20:30Z</time>
      </trkpt>
      <trkpt lat="45.95391" lon="4.63043">
        <ele>335</ele>
        <time>2015-11-24T19:20:34Z</time>
      </trkpt>
      <trkpt lat="45.95384" lon="4.63026">
        <ele>334</ele>
        <time>2015-11-24T19:20:40Z</time>
      </trkpt>
      <trkpt lat="45.95379" lon="4.6301">
        <ele>334</ele>
        <time>2015-11-24T19:20:44Z</time>
      </trkpt>
      <trkpt lat="45.95359" lon="4.62983">
        <ele>334</ele>
        <time>2015-11-24T19:20:55Z</time>
      </trkpt>
      <trkpt lat="45.9535" lon="4.62979">
        <ele>335</ele>
        <time>2015-11-24T19:20:58Z</time>
      </trkpt>
      <trkpt lat="45.95345" lon="4.62972">
        <ele>335</ele>
        <time>2015-11-24T19:21:02Z</time>
      </trkpt>
      <trkpt lat="45.95333" lon="4.62964">
        <ele>335</ele>
        <time>2015-11-24T19:21:08Z</time>
      </trkpt>
      <trkpt lat="45.95318" lon="4.62961">
        <ele>335</ele>
        <time>2015-11-24T19:21:14Z</time>
      </trkpt>
      <trkpt lat="45.95305" lon="4.62958">
        <ele>336</ele>
        <time>2015-11-24T19:21:20Z</time>
      </trkpt>
      <trkpt lat="45.9529" lon="4.62957">
        <ele>337</ele>
        <time>2015-11-24T19:21:26Z</time>
      </trkpt>
      <trkpt lat="45.95272" lon="4.62954">
        <ele>337</ele>
        <time>2015-11-24T19:21:34Z</time>
      </trkpt>
      <trkpt lat="45.95258" lon="4.62954">
        <ele>337</ele>
        <time>2015-11-24T19:21:38Z</time>
      </trkpt>
      <trkpt lat="45.95245" lon="4.62951">
        <ele>337</ele>
        <time>2015-11-24T19:21:44Z</time>
      </trkpt>
      <trkpt lat="45.95231" lon="4.62949">
        <ele>338</ele>
        <time>2015-11-24T19:21:50Z</time>
      </trkpt>
      <trkpt lat="45.95206" lon="4.62951">
        <ele>339</ele>
        <time>2015-11-24T19:21:59Z</time>
      </trkpt>
      <trkpt lat="45.95195" lon="4.62953">
        <ele>340</ele>
        <time>2015-11-24T19:22:03Z</time>
      </trkpt>
      <trkpt lat="45.95183" lon="4.62945">
        <ele>340</ele>
        <time>2015-11-24T19:22:08Z</time>
      </trkpt>
      <trkpt lat="45.95169" lon="4.62942">
        <ele>340</ele>
        <time>2015-11-24T19:22:14Z</time>
      </trkpt>
      <trkpt lat="45.95144" lon="4.62948">
        <ele>343</ele>
        <time>2015-11-24T19:22:24Z</time>
      </trkpt>
      <trkpt lat="45.95138" lon="4.62947">
        <ele>343</ele>
        <time>2015-11-24T19:22:27Z</time>
      </trkpt>
      <trkpt lat="45.95115" lon="4.62945">
        <ele>346</ele>
        <time>2015-11-24T19:22:36Z</time>
      </trkpt>
      <trkpt lat="45.95106" lon="4.62945">
        <ele>347</ele>
        <time>2015-11-24T19:22:39Z</time>
      </trkpt>
      <trkpt lat="45.95092" lon="4.62942">
        <ele>349</ele>
        <time>2015-11-24T19:22:44Z</time>
      </trkpt>
      <trkpt lat="45.95075" lon="4.62931">
        <ele>349</ele>
        <time>2015-11-24T19:22:50Z</time>
      </trkpt>
      <trkpt lat="45.95063" lon="4.62922">
        <ele>350</ele>
        <time>2015-11-24T19:22:56Z</time>
      </trkpt>
      <trkpt lat="45.95048" lon="4.62909">
        <ele>350</ele>
        <time>2015-11-24T19:23:03Z</time>
      </trkpt>
      <trkpt lat="45.95034" lon="4.62902">
        <ele>352</ele>
        <time>2015-11-24T19:23:08Z</time>
      </trkpt>
      <trkpt lat="45.95016" lon="4.62898">
        <ele>355</ele>
        <time>2015-11-24T19:23:14Z</time>
      </trkpt>
      <trkpt lat="45.94998" lon="4.62886">
        <ele>357</ele>
        <time>2015-11-24T19:23:23Z</time>
      </trkpt>
      <trkpt lat="45.94991" lon="4.62882">
        <ele>358</ele>
        <time>2015-11-24T19:23:26Z</time>
      </trkpt>
      <trkpt lat="45.94967" lon="4.62857">
        <ele>361</ele>
        <time>2015-11-24T19:23:37Z</time>
      </trkpt>
      <trkpt lat="45.94956" lon="4.62841">
        <ele>362</ele>
        <time>2015-11-24T19:23:43Z</time>
      </trkpt>
      <trkpt lat="45.94954" lon="4.62839">
        <ele>363</ele>
        <time>2015-11-24T19:23:44Z</time>
      </trkpt>
      <trkpt lat="45.94947" lon="4.62822">
        <ele>364</ele>
        <time>2015-11-24T19:23:50Z</time>
      </trkpt>
      <trkpt lat="45.94938" lon="4.62813">
        <ele>366</ele>
        <time>2015-11-24T19:23:56Z</time>
      </trkpt>
      <trkpt lat="45.94923" lon="4.62778">
        <ele>368</ele>
        <time>2015-11-24T19:24:05Z</time>
      </trkpt>
      <trkpt lat="45.9492" lon="4.6276">
        <ele>368</ele>
        <time>2015-11-24T19:24:08Z</time>
      </trkpt>
      <trkpt lat="45.94914" lon="4.62739">
        <ele>367</ele>
        <time>2015-11-24T19:24:15Z</time>
      </trkpt>
      <trkpt lat="45.94902" lon="4.62704">
        <ele>367</ele>
        <time>2015-11-24T19:24:25Z</time>
      </trkpt>
      <trkpt lat="45.94902" lon="4.62702">
        <ele>367</ele>
        <time>2015-11-24T19:24:26Z</time>
      </trkpt>
      <trkpt lat="45.94894" lon="4.62674">
        <ele>365</ele>
        <time>2015-11-24T19:24:34Z</time>
      </trkpt>
      <trkpt lat="45.9489" lon="4.62662">
        <ele>365</ele>
        <time>2015-11-24T19:24:38Z</time>
      </trkpt>
      <trkpt lat="45.94876" lon="4.62651">
        <ele>367</ele>
        <time>2015-11-24T19:24:44Z</time>
      </trkpt>
      <trkpt lat="45.94854" lon="4.62633">
        <ele>369</ele>
        <time>2015-11-24T19:24:54Z</time>
      </trkpt>
      <trkpt lat="45.94848" lon="4.62629">
        <ele>370</ele>
        <time>2015-11-24T19:24:56Z</time>
      </trkpt>
      <trkpt lat="45.94839" lon="4.62619">
        <ele>371</ele>
        <time>2015-11-24T19:25:02Z</time>
      </trkpt>
      <trkpt lat="45.94822" lon="4.62613">
        <ele>373</ele>
        <time>2015-11-24T19:25:08Z</time>
      </trkpt>
      <trkpt lat="45.94805" lon="4.62595">
        <ele>373</ele>
        <time>2015-11-24T19:25:17Z</time>
      </trkpt>
      <trkpt lat="45.94784" lon="4.62589">
        <ele>376</ele>
        <time>2015-11-24T19:25:24Z</time>
      </trkpt>
      <trkpt lat="45.94776" lon="4.62586">
        <ele>377</ele>
        <time>2015-11-24T19:25:27Z</time>
      </trkpt>
      <trkpt lat="45.94762" lon="4.62583">
        <ele>378</ele>
        <time>2015-11-24T19:25:32Z</time>
      </trkpt>
      <trkpt lat="45.94755" lon="4.62565">
        <ele>378</ele>
        <time>2015-11-24T19:25:38Z</time>
      </trkpt>
      <trkpt lat="45.94734" lon="4.62546">
        <ele>379</ele>
        <time>2015-11-24T19:25:47Z</time>
      </trkpt>
      <trkpt lat="45.94725" lon="4.62543">
        <ele>380</ele>
        <time>2015-11-24T19:25:50Z</time>
      </trkpt>
      <trkpt lat="45.94711" lon="4.6253">
        <ele>382</ele>
        <time>2015-11-24T19:25:58Z</time>
      </trkpt>
      <trkpt lat="45.94697" lon="4.62523">
        <ele>383</ele>
        <time>2015-11-24T19:26:03Z</time>
      </trkpt>
      <trkpt lat="45.94689" lon="4.62509">
        <ele>384</ele>
        <time>2015-11-24T19:26:08Z</time>
      </trkpt>
      <trkpt lat="45.9467" lon="4.62499">
        <ele>386</ele>
        <time>2015-11-24T19:26:14Z</time>
      </trkpt>
      <trkpt lat="45.94657" lon="4.62484">
        <ele>387</ele>
        <time>2015-11-24T19:26:21Z</time>
      </trkpt>
      <trkpt lat="45.9463" lon="4.62466">
        <ele>389</ele>
        <time>2015-11-24T19:26:31Z</time>
      </trkpt>
      <trkpt lat="45.9463" lon="4.62463">
        <ele>389</ele>
        <time>2015-11-24T19:26:32Z</time>
      </trkpt>
      <trkpt lat="45.94612" lon="4.62445">
        <ele>391</ele>
        <time>2015-11-24T19:26:40Z</time>
      </trkpt>
      <trkpt lat="45.94595" lon="4.62414">
        <ele>392</ele>
        <time>2015-11-24T19:26:49Z</time>
      </trkpt>
      <trkpt lat="45.94593" lon="4.62412">
        <ele>393</ele>
        <time>2015-11-24T19:26:50Z</time>
      </trkpt>
      <trkpt lat="45.94585" lon="4.62391">
        <ele>393</ele>
        <time>2015-11-24T19:26:56Z</time>
      </trkpt>
      <trkpt lat="45.94575" lon="4.62371">
        <ele>394</ele>
        <time>2015-11-24T19:27:02Z</time>
      </trkpt>
      <trkpt lat="45.94564" lon="4.62353">
        <ele>395</ele>
        <time>2015-11-24T19:27:08Z</time>
      </trkpt>
      <trkpt lat="45.94546" lon="4.6232">
        <ele>397</ele>
        <time>2015-11-24T19:27:19Z</time>
      </trkpt>
      <trkpt lat="45.94545" lon="4.62317">
        <ele>397</ele>
        <time>2015-11-24T19:27:20Z</time>
      </trkpt>
      <trkpt lat="45.94531" lon="4.62295">
        <ele>400</ele>
        <time>2015-11-24T19:27:30Z</time>
      </trkpt>
      <trkpt lat="45.94526" lon="4.62291">
        <ele>400</ele>
        <time>2015-11-24T19:27:32Z</time>
      </trkpt>
      <trkpt lat="45.94515" lon="4.62268">
        <ele>402</ele>
        <time>2015-11-24T19:27:39Z</time>
      </trkpt>
      <trkpt lat="45.94528" lon="4.62246">
        <ele>402</ele>
        <time>2015-11-24T19:27:49Z</time>
      </trkpt>
      <trkpt lat="45.94531" lon="4.62243">
        <ele>402</ele>
        <time>2015-11-24T19:27:50Z</time>
      </trkpt>
      <trkpt lat="45.9455" lon="4.62233">
        <ele>400</ele>
        <time>2015-11-24T19:27:57Z</time>
      </trkpt>
      <trkpt lat="45.94561" lon="4.62217">
        <ele>400</ele>
        <time>2015-11-24T19:28:02Z</time>
      </trkpt>
      <trkpt lat="45.94573" lon="4.62194">
        <ele>401</ele>
        <time>2015-11-24T19:28:09Z</time>
      </trkpt>
      <trkpt lat="45.94579" lon="4.6218">
        <ele>402</ele>
        <time>2015-11-24T19:28:14Z</time>
      </trkpt>
      <trkpt lat="45.94592" lon="4.62158">
        <ele>404</ele>
        <time>2015-11-24T19:28:20Z</time>
      </trkpt>
      <trkpt lat="45.94601" lon="4.62138">
        <ele>408</ele>
        <time>2015-11-24T19:28:26Z</time>
      </trkpt>
      <trkpt lat="45.94617" lon="4.62121">
        <ele>410</ele>
        <time>2015-11-24T19:28:32Z</time>
      </trkpt>
      <trkpt lat="45.94639" lon="4.62101">
        <ele>412</ele>
        <time>2015-11-24T19:28:41Z</time>
      </trkpt>
      <trkpt lat="45.94647" lon="4.62096">
        <ele>412</ele>
        <time>2015-11-24T19:28:44Z</time>
      </trkpt>
      <trkpt lat="45.94668" lon="4.62073">
        <ele>413</ele>
        <time>2015-11-24T19:28:55Z</time>
      </trkpt>
      <trkpt lat="45.94672" lon="4.62071">
        <ele>413</ele>
        <time>2015-11-24T19:28:56Z</time>
      </trkpt>
      <trkpt lat="45.94687" lon="4.62063">
        <ele>412</ele>
        <time>2015-11-24T19:29:02Z</time>
      </trkpt>
      <trkpt lat="45.94717" lon="4.62047">
        <ele>410</ele>
        <time>2015-11-24T19:29:13Z</time>
      </trkpt>
      <trkpt lat="45.9472" lon="4.62045">
        <ele>410</ele>
        <time>2015-11-24T19:29:14Z</time>
      </trkpt>
      <trkpt lat="45.94733" lon="4.62038">
        <ele>410</ele>
        <time>2015-11-24T19:29:20Z</time>
      </trkpt>
      <trkpt lat="45.9475" lon="4.62031">
        <ele>411</ele>
        <time>2015-11-24T19:29:26Z</time>
      </trkpt>
      <trkpt lat="45.94781" lon="4.62033">
        <ele>412</ele>
        <time>2015-11-24T19:29:36Z</time>
      </trkpt>
      <trkpt lat="45.94787" lon="4.62036">
        <ele>411</ele>
        <time>2015-11-24T19:29:38Z</time>
      </trkpt>
      <trkpt lat="45.948" lon="4.62045">
        <ele>410</ele>
        <time>2015-11-24T19:29:44Z</time>
      </trkpt>
      <trkpt lat="45.94815" lon="4.62054">
        <ele>410</ele>
        <time>2015-11-24T19:29:50Z</time>
      </trkpt>
      <trkpt lat="45.94834" lon="4.62058">
        <ele>411</ele>
        <time>2015-11-24T19:29:58Z</time>
      </trkpt>
      <trkpt lat="45.94846" lon="4.62059">
        <ele>413</ele>
        <time>2015-11-24T19:30:02Z</time>
      </trkpt>
      <trkpt lat="45.9486" lon="4.6206">
        <ele>415</ele>
        <time>2015-11-24T19:30:08Z</time>
      </trkpt>
      <trkpt lat="45.94889" lon="4.62057">
        <ele>418</ele>
        <time>2015-11-24T19:30:17Z</time>
      </trkpt>
      <trkpt lat="45.94904" lon="4.62056">
        <ele>418</ele>
        <time>2015-11-24T19:30:22Z</time>
      </trkpt>
      <trkpt lat="45.94914" lon="4.62057">
        <ele>418</ele>
        <time>2015-11-24T19:30:26Z</time>
      </trkpt>
      <trkpt lat="45.94941" lon="4.62043">
        <ele>422</ele>
        <time>2015-11-24T19:30:37Z</time>
      </trkpt>
      <trkpt lat="45.94959" lon="4.62036">
        <ele>423</ele>
        <time>2015-11-24T19:30:41Z</time>
      </trkpt>
      <trkpt lat="45.94963" lon="4.6203">
        <ele>424</ele>
        <time>2015-11-24T19:30:45Z</time>
      </trkpt>
      <trkpt lat="45.9498" lon="4.62022">
        <ele>425</ele>
        <time>2015-11-24T19:30:52Z</time>
      </trkpt>
      <trkpt lat="45.94991" lon="4.62019">
        <ele>425</ele>
        <time>2015-11-24T19:30:56Z</time>
      </trkpt>
      <trkpt lat="45.95006" lon="4.62011">
        <ele>426</ele>
        <time>2015-11-24T19:31:02Z</time>
      </trkpt>
      <trkpt lat="45.95027" lon="4.61997">
        <ele>426</ele>
        <time>2015-11-24T19:31:10Z</time>
      </trkpt>
      <trkpt lat="45.95036" lon="4.61991">
        <ele>427</ele>
        <time>2015-11-24T19:31:14Z</time>
      </trkpt>
      <trkpt lat="45.95054" lon="4.61989">
        <ele>426</ele>
        <time>2015-11-24T19:31:20Z</time>
      </trkpt>
      <trkpt lat="45.95074" lon="4.61976">
        <ele>428</ele>
        <time>2015-11-24T19:31:29Z</time>
      </trkpt>
      <trkpt lat="45.95082" lon="4.61975">
        <ele>428</ele>
        <time>2015-11-24T19:31:32Z</time>
      </trkpt>
      <trkpt lat="45.95097" lon="4.61968">
        <ele>428</ele>
        <time>2015-11-24T19:31:38Z</time>
      </trkpt>
      <trkpt lat="45.95115" lon="4.61961">
        <ele>428</ele>
        <time>2015-11-24T19:31:44Z</time>
      </trkpt>
      <trkpt lat="45.95139" lon="4.61942">
        <ele>428</ele>
        <time>2015-11-24T19:31:55Z</time>
      </trkpt>
      <trkpt lat="45.9515" lon="4.61939">
        <ele>426</ele>
        <time>2015-11-24T19:31:59Z</time>
      </trkpt>
      <trkpt lat="45.95161" lon="4.6193">
        <ele>425</ele>
        <time>2015-11-24T19:32:04Z</time>
      </trkpt>
      <trkpt lat="45.95171" lon="4.61921">
        <ele>424</ele>
        <time>2015-11-24T19:32:08Z</time>
      </trkpt>
      <trkpt lat="45.95194" lon="4.61895">
        <ele>423</ele>
        <time>2015-11-24T19:32:17Z</time>
      </trkpt>
      <trkpt lat="45.95199" lon="4.61886">
        <ele>423</ele>
        <time>2015-11-24T19:32:20Z</time>
      </trkpt>
      <trkpt lat="45.9521" lon="4.61868">
        <ele>423</ele>
        <time>2015-11-24T19:32:26Z</time>
      </trkpt>
      <trkpt lat="45.95224" lon="4.61851">
        <ele>422</ele>
        <time>2015-11-24T19:32:32Z</time>
      </trkpt>
      <trkpt lat="45.95237" lon="4.61832">
        <ele>421</ele>
        <time>2015-11-24T19:32:38Z</time>
      </trkpt>
      <trkpt lat="45.9525" lon="4.61816">
        <ele>419</ele>
        <time>2015-11-24T19:32:44Z</time>
      </trkpt>
      <trkpt lat="45.95262" lon="4.61796">
        <ele>417</ele>
        <time>2015-11-24T19:32:50Z</time>
      </trkpt>
      <trkpt lat="45.95272" lon="4.61766">
        <ele>418</ele>
        <time>2015-11-24T19:32:58Z</time>
      </trkpt>
      <trkpt lat="45.95275" lon="4.61751">
        <ele>420</ele>
        <time>2015-11-24T19:33:02Z</time>
      </trkpt>
      <trkpt lat="45.95289" lon="4.61715">
        <ele>427</ele>
        <time>2015-11-24T19:33:11Z</time>
      </trkpt>
      <trkpt lat="45.9531" lon="4.61703">
        <ele>429</ele>
        <time>2015-11-24T19:33:19Z</time>
      </trkpt>
      <trkpt lat="45.95319" lon="4.61703">
        <ele>428</ele>
        <time>2015-11-24T19:33:22Z</time>
      </trkpt>
      <trkpt lat="45.95346" lon="4.61699">
        <ele>428</ele>
        <time>2015-11-24T19:33:30Z</time>
      </trkpt>
      <trkpt lat="45.95351" lon="4.61701">
        <ele>428</ele>
        <time>2015-11-24T19:33:32Z</time>
      </trkpt>
      <trkpt lat="45.9538" lon="4.61692">
        <ele>428</ele>
        <time>2015-11-24T19:33:42Z</time>
      </trkpt>
      <trkpt lat="45.9539" lon="4.61692">
        <ele>428</ele>
        <time>2015-11-24T19:33:46Z</time>
      </trkpt>
      <trkpt lat="45.954" lon="4.61693">
        <ele>428</ele>
        <time>2015-11-24T19:33:50Z</time>
      </trkpt>
      <trkpt lat="45.95423" lon="4.61696">
        <ele>428</ele>
        <time>2015-11-24T19:33:58Z</time>
      </trkpt>
      <trkpt lat="45.95444" lon="4.61702">
        <ele>428</ele>
        <time>2015-11-24T19:34:06Z</time>
      </trkpt>
      <trkpt lat="45.95449" lon="4.61703">
        <ele>428</ele>
        <time>2015-11-24T19:34:08Z</time>
      </trkpt>
      <trkpt lat="45.95476" lon="4.61706">
        <ele>427</ele>
        <time>2015-11-24T19:34:18Z</time>
      </trkpt>
      <trkpt lat="45.95481" lon="4.61703">
        <ele>427</ele>
        <time>2015-11-24T19:34:20Z</time>
      </trkpt>
      <trkpt lat="45.95502" lon="4.61684">
        <ele>429</ele>
        <time>2015-11-24T19:34:28Z</time>
      </trkpt>
      <trkpt lat="45.95511" lon="4.61672">
        <ele>429</ele>
        <time>2015-11-24T19:34:32Z</time>
      </trkpt>
      <trkpt lat="45.95523" lon="4.61653">
        <ele>430</ele>
        <time>2015-11-24T19:34:38Z</time>
      </trkpt>
      <trkpt lat="45.95537" lon="4.61629">
        <ele>431</ele>
        <time>2015-11-24T19:34:45Z</time>
      </trkpt>
      <trkpt lat="45.95544" lon="4.61609">
        <ele>431</ele>
        <time>2015-11-24T19:34:50Z</time>
      </trkpt>
      <trkpt lat="45.95551" lon="4.61589">
        <ele>432</ele>
        <time>2015-11-24T19:34:56Z</time>
      </trkpt>
      <trkpt lat="45.95561" lon="4.61566">
        <ele>431</ele>
        <time>2015-11-24T19:35:02Z</time>
      </trkpt>
      <trkpt lat="45.95565" lon="4.61542">
        <ele>431</ele>
        <time>2015-11-24T19:35:08Z</time>
      </trkpt>
      <trkpt lat="45.95566" lon="4.61512">
        <ele>432</ele>
        <time>2015-11-24T19:35:14Z</time>
      </trkpt>
      <trkpt lat="45.95568" lon="4.61491">
        <ele>432</ele>
        <time>2015-11-24T19:35:20Z</time>
      </trkpt>
      <trkpt lat="45.95567" lon="4.61444">
        <ele>431</ele>
        <time>2015-11-24T19:35:30Z</time>
      </trkpt>
      <trkpt lat="45.95568" lon="4.61433">
        <ele>430</ele>
        <time>2015-11-24T19:35:33Z</time>
      </trkpt>
      <trkpt lat="45.95568" lon="4.61415">
        <ele>428</ele>
        <time>2015-11-24T19:35:38Z</time>
      </trkpt>
      <trkpt lat="45.95565" lon="4.61392">
        <ele>425</ele>
        <time>2015-11-24T19:35:44Z</time>
      </trkpt>
      <trkpt lat="45.95563" lon="4.61352">
        <ele>420</ele>
        <time>2015-11-24T19:35:52Z</time>
      </trkpt>
      <trkpt lat="45.95557" lon="4.61337">
        <ele>420</ele>
        <time>2015-11-24T19:35:56Z</time>
      </trkpt>
      <trkpt lat="45.9554" lon="4.61302">
        <ele>421</ele>
        <time>2015-11-24T19:36:06Z</time>
      </trkpt>
      <trkpt lat="45.95528" lon="4.61283">
        <ele>423</ele>
        <time>2015-11-24T19:36:12Z</time>
      </trkpt>
      <trkpt lat="45.95524" lon="4.61273">
        <ele>424</ele>
        <time>2015-11-24T19:36:14Z</time>
      </trkpt>
      <trkpt lat="45.95521" lon="4.61256">
        <ele>424</ele>
        <time>2015-11-24T19:36:20Z</time>
      </trkpt>
      <trkpt lat="45.95519" lon="4.61215">
        <ele>424</ele>
        <time>2015-11-24T19:36:29Z</time>
      </trkpt>
      <trkpt lat="45.95521" lon="4.61191">
        <ele>424</ele>
        <time>2015-11-24T19:36:34Z</time>
      </trkpt>
      <trkpt lat="45.95526" lon="4.6118">
        <ele>423</ele>
        <time>2015-11-24T19:36:38Z</time>
      </trkpt>
      <trkpt lat="45.95531" lon="4.61149">
        <ele>422</ele>
        <time>2015-11-24T19:36:44Z</time>
      </trkpt>
      <trkpt lat="45.95531" lon="4.61123">
        <ele>423</ele>
        <time>2015-11-24T19:36:50Z</time>
      </trkpt>
      <trkpt lat="45.95541" lon="4.6108">
        <ele>423</ele>
        <time>2015-11-24T19:37:01Z</time>
      </trkpt>
      <trkpt lat="45.95542" lon="4.61077">
        <ele>423</ele>
        <time>2015-11-24T19:37:02Z</time>
      </trkpt>
      <trkpt lat="45.95552" lon="4.61055">
        <ele>423</ele>
        <time>2015-11-24T19:37:08Z</time>
      </trkpt>
      <trkpt lat="45.95564" lon="4.61042">
        <ele>422</ele>
        <time>2015-11-24T19:37:14Z</time>
      </trkpt>
      <trkpt lat="45.95579" lon="4.61033">
        <ele>420</ele>
        <time>2015-11-24T19:37:20Z</time>
      </trkpt>
      <trkpt lat="45.95596" lon="4.61">
        <ele>416</ele>
        <time>2015-11-24T19:37:30Z</time>
      </trkpt>
      <trkpt lat="45.95598" lon="4.60985">
        <ele>416</ele>
        <time>2015-11-24T19:37:34Z</time>
      </trkpt>
      <trkpt lat="45.95599" lon="4.6097">
        <ele>416</ele>
        <time>2015-11-24T19:37:38Z</time>
      </trkpt>
      <trkpt lat="45.95601" lon="4.60932">
        <ele>419</ele>
        <time>2015-11-24T19:37:46Z</time>
      </trkpt>
      <trkpt lat="45.95612" lon="4.60916">
        <ele>420</ele>
        <time>2015-11-24T19:37:52Z</time>
      </trkpt>
      <trkpt lat="45.9562" lon="4.60904">
        <ele>423</ele>
        <time>2015-11-24T19:37:56Z</time>
      </trkpt>
      <trkpt lat="45.95636" lon="4.60894">
        <ele>425</ele>
        <time>2015-11-24T19:38:02Z</time>
      </trkpt>
      <trkpt lat="45.95659" lon="4.60897">
        <ele>426</ele>
        <time>2015-11-24T19:38:09Z</time>
      </trkpt>
      <trkpt lat="45.95674" lon="4.60898">
        <ele>426</ele>
        <time>2015-11-24T19:38:15Z</time>
      </trkpt>
      <trkpt lat="45.95694" lon="4.60901">
        <ele>426</ele>
        <time>2015-11-24T19:38:21Z</time>
      </trkpt>
      <trkpt lat="45.95708" lon="4.60907">
        <ele>425</ele>
        <time>2015-11-24T19:38:26Z</time>
      </trkpt>
      <trkpt lat="45.95739" lon="4.60914">
        <ele>424</ele>
        <time>2015-11-24T19:38:36Z</time>
      </trkpt>
      <trkpt lat="45.95744" lon="4.60914">
        <ele>424</ele>
        <time>2015-11-24T19:38:38Z</time>
      </trkpt>
      <trkpt lat="45.95778" lon="4.60925">
        <ele>425</ele>
        <time>2015-11-24T19:38:49Z</time>
      </trkpt>
      <trkpt lat="45.95795" lon="4.60924">
        <ele>425</ele>
        <time>2015-11-24T19:38:55Z</time>
      </trkpt>
      <trkpt lat="45.95805" lon="4.60923">
        <ele>426</ele>
        <time>2015-11-24T19:38:58Z</time>
      </trkpt>
      <trkpt lat="45.95818" lon="4.60926">
        <ele>426</ele>
        <time>2015-11-24T19:39:02Z</time>
      </trkpt>
      <trkpt lat="45.95837" lon="4.60928">
        <ele>427</ele>
        <time>2015-11-24T19:39:08Z</time>
      </trkpt>
      <trkpt lat="45.9586" lon="4.60924">
        <ele>429</ele>
        <time>2015-11-24T19:39:15Z</time>
      </trkpt>
      <trkpt lat="45.95874" lon="4.60925">
        <ele>430</ele>
        <time>2015-11-24T19:39:20Z</time>
      </trkpt>
      <trkpt lat="45.95893" lon="4.60922">
        <ele>431</ele>
        <time>2015-11-24T19:39:26Z</time>
      </trkpt>
      <trkpt lat="45.95921" lon="4.60921">
        <ele>433</ele>
        <time>2015-11-24T19:39:34Z</time>
      </trkpt>
      <trkpt lat="45.9593" lon="4.6092">
        <ele>433</ele>
        <time>2015-11-24T19:39:38Z</time>
      </trkpt>
      <trkpt lat="45.95959" lon="4.6091">
        <ele>433</ele>
        <time>2015-11-24T19:39:49Z</time>
      </trkpt>
      <trkpt lat="45.95967" lon="4.60908">
        <ele>433</ele>
        <time>2015-11-24T19:39:53Z</time>
      </trkpt>
      <trkpt lat="45.95989" lon="4.609">
        <ele>431</ele>
        <time>2015-11-24T19:40:00Z</time>
      </trkpt>
      <trkpt lat="45.95998" lon="4.60899">
        <ele>430</ele>
        <time>2015-11-24T19:40:03Z</time>
      </trkpt>
      <trkpt lat="45.96012" lon="4.60898">
        <ele>429</ele>
        <time>2015-11-24T19:40:08Z</time>
      </trkpt>
      <trkpt lat="45.96034" lon="4.60898">
        <ele>426</ele>
        <time>2015-11-24T19:40:14Z</time>
      </trkpt>
      <trkpt lat="45.96053" lon="4.60907">
        <ele>423</ele>
        <time>2015-11-24T19:40:20Z</time>
      </trkpt>
      <trkpt lat="45.96078" lon="4.60914">
        <ele>420</ele>
        <time>2015-11-24T19:40:28Z</time>
      </trkpt>
      <trkpt lat="45.96093" lon="4.60921">
        <ele>418</ele>
        <time>2015-11-24T19:40:33Z</time>
      </trkpt>
      <trkpt lat="45.9612" lon="4.60923">
        <ele>416</ele>
        <time>2015-11-24T19:40:43Z</time>
      </trkpt>
      <trkpt lat="45.96123" lon="4.60924">
        <ele>415</ele>
        <time>2015-11-24T19:40:44Z</time>
      </trkpt>
      <trkpt lat="45.96137" lon="4.60924">
        <ele>414</ele>
        <time>2015-11-24T19:40:50Z</time>
      </trkpt>
      <trkpt lat="45.96171" lon="4.60914">
        <ele>411</ele>
        <time>2015-11-24T19:41:01Z</time>
      </trkpt>
      <trkpt lat="45.96174" lon="4.60903">
        <ele>411</ele>
        <time>2015-11-24T19:41:04Z</time>
      </trkpt>
      <trkpt lat="45.96171" lon="4.60884">
        <ele>410</ele>
        <time>2015-11-24T19:41:08Z</time>
      </trkpt>
      <trkpt lat="45.96166" lon="4.60857">
        <ele>411</ele>
        <time>2015-11-24T19:41:14Z</time>
      </trkpt>
      <trkpt lat="45.9616" lon="4.60824">
        <ele>411</ele>
        <time>2015-11-24T19:41:22Z</time>
      </trkpt>
      <trkpt lat="45.96152" lon="4.60772">
        <ele>413</ele>
        <time>2015-11-24T19:41:30Z</time>
      </trkpt>
      <trkpt lat="45.96151" lon="4.60768">
        <ele>413</ele>
        <time>2015-11-24T19:41:32Z</time>
      </trkpt>
      <trkpt lat="45.96147" lon="4.60741">
        <ele>414</ele>
        <time>2015-11-24T19:41:38Z</time>
      </trkpt>
      <trkpt lat="45.96142" lon="4.60703">
        <ele>416</ele>
        <time>2015-11-24T19:41:49Z</time>
      </trkpt>
      <trkpt lat="45.96138" lon="4.60684">
        <ele>417</ele>
        <time>2015-11-24T19:41:55Z</time>
      </trkpt>
      <trkpt lat="45.96138" lon="4.60652">
        <ele>419</ele>
        <time>2015-11-24T19:41:59Z</time>
      </trkpt>
      <trkpt lat="45.96146" lon="4.60641">
        <ele>418</ele>
        <time>2015-11-24T19:42:03Z</time>
      </trkpt>
      <trkpt lat="45.96153" lon="4.6062">
        <ele>418</ele>
        <time>2015-11-24T19:42:08Z</time>
      </trkpt>
      <trkpt lat="45.96164" lon="4.606">
        <ele>418</ele>
        <time>2015-11-24T19:42:14Z</time>
      </trkpt>
      <trkpt lat="45.96197" lon="4.6059">
        <ele>415</ele>
        <time>2015-11-24T19:42:25Z</time>
      </trkpt>
      <trkpt lat="45.96203" lon="4.6059">
        <ele>414</ele>
        <time>2015-11-24T19:42:27Z</time>
      </trkpt>
      <trkpt lat="45.9623" lon="4.60611">
        <ele>411</ele>
        <time>2015-11-24T19:42:36Z</time>
      </trkpt>
      <trkpt lat="45.96234" lon="4.60614">
        <ele>410</ele>
        <time>2015-11-24T19:42:38Z</time>
      </trkpt>
      <trkpt lat="45.96249" lon="4.60624">
        <ele>408</ele>
        <time>2015-11-24T19:42:44Z</time>
      </trkpt>
      <trkpt lat="45.96272" lon="4.60659">
        <ele>404</ele>
        <time>2015-11-24T19:42:55Z</time>
      </trkpt>
      <trkpt lat="45.96277" lon="4.60674">
        <ele>404</ele>
        <time>2015-11-24T19:42:58Z</time>
      </trkpt>
      <trkpt lat="45.96281" lon="4.6069">
        <ele>403</ele>
        <time>2015-11-24T19:43:02Z</time>
      </trkpt>
      <trkpt lat="45.96285" lon="4.60718">
        <ele>400</ele>
        <time>2015-11-24T19:43:08Z</time>
      </trkpt>
      <trkpt lat="45.96287" lon="4.60741">
        <ele>400</ele>
        <time>2015-11-24T19:43:16Z</time>
      </trkpt>
      <trkpt lat="45.96289" lon="4.60747">
        <ele>400</ele>
        <time>2015-11-24T19:43:20Z</time>
      </trkpt>
      <trkpt lat="45.96295" lon="4.60768">
        <ele>399</ele>
        <time>2015-11-24T19:43:28Z</time>
      </trkpt>
      <trkpt lat="45.96292" lon="4.60782">
        <ele>399</ele>
        <time>2015-11-24T19:43:34Z</time>
      </trkpt>
      <trkpt lat="45.96296" lon="4.60795">
        <ele>398</ele>
        <time>2015-11-24T19:43:39Z</time>
      </trkpt>
      <trkpt lat="45.96296" lon="4.60807">
        <ele>398</ele>
        <time>2015-11-24T19:43:44Z</time>
      </trkpt>
      <trkpt lat="45.96296" lon="4.60824">
        <ele>397</ele>
        <time>2015-11-24T19:43:50Z</time>
      </trkpt>
      <trkpt lat="45.96299" lon="4.60842">
        <ele>396</ele>
        <time>2015-11-24T19:44:01Z</time>
      </trkpt>
      <trkpt lat="45.96299" lon="4.60847">
        <ele>396</ele>
        <time>2015-11-24T19:44:02Z</time>
      </trkpt>
      <trkpt lat="45.96305" lon="4.60869">
        <ele>394</ele>
        <time>2015-11-24T19:44:10Z</time>
      </trkpt>
      <trkpt lat="45.96307" lon="4.60879">
        <ele>394</ele>
        <time>2015-11-24T19:44:14Z</time>
      </trkpt>
      <trkpt lat="45.96314" lon="4.60929">
        <ele>391</ele>
        <time>2015-11-24T19:44:25Z</time>
      </trkpt>
      <trkpt lat="45.96315" lon="4.60934">
        <ele>390</ele>
        <time>2015-11-24T19:44:26Z</time>
      </trkpt>
      <trkpt lat="45.96313" lon="4.60967">
        <ele>389</ele>
        <time>2015-11-24T19:44:32Z</time>
      </trkpt>
      <trkpt lat="45.96311" lon="4.61">
        <ele>387</ele>
        <time>2015-11-24T19:44:39Z</time>
      </trkpt>
      <trkpt lat="45.96308" lon="4.61031">
        <ele>385</ele>
        <time>2015-11-24T19:44:46Z</time>
      </trkpt>
      <trkpt lat="45.96312" lon="4.61059">
        <ele>383</ele>
        <time>2015-11-24T19:44:52Z</time>
      </trkpt>
      <trkpt lat="45.96314" lon="4.61083">
        <ele>381</ele>
        <time>2015-11-24T19:44:57Z</time>
      </trkpt>
      <trkpt lat="45.96318" lon="4.61109">
        <ele>381</ele>
        <time>2015-11-24T19:45:02Z</time>
      </trkpt>
      <trkpt lat="45.96319" lon="4.61136">
        <ele>380</ele>
        <time>2015-11-24T19:45:08Z</time>
      </trkpt>
      <trkpt lat="45.96323" lon="4.61164">
        <ele>379</ele>
        <time>2015-11-24T19:45:14Z</time>
      </trkpt>
      <trkpt lat="45.96327" lon="4.61189">
        <ele>376</ele>
        <time>2015-11-24T19:45:20Z</time>
      </trkpt>
      <trkpt lat="45.96341" lon="4.61228">
        <ele>373</ele>
        <time>2015-11-24T19:45:29Z</time>
      </trkpt>
      <trkpt lat="45.96346" lon="4.61253">
        <ele>371</ele>
        <time>2015-11-24T19:45:34Z</time>
      </trkpt>
      <trkpt lat="45.96352" lon="4.61276">
        <ele>370</ele>
        <time>2015-11-24T19:45:40Z</time>
      </trkpt>
      <trkpt lat="45.96356" lon="4.61291">
        <ele>369</ele>
        <time>2015-11-24T19:45:44Z</time>
      </trkpt>
      <trkpt lat="45.96366" lon="4.61313">
        <ele>367</ele>
        <time>2015-11-24T19:45:50Z</time>
      </trkpt>
      <trkpt lat="45.96377" lon="4.6134">
        <ele>365</ele>
        <time>2015-11-24T19:45:58Z</time>
      </trkpt>
      <trkpt lat="45.96392" lon="4.61367">
        <ele>363</ele>
        <time>2015-11-24T19:46:04Z</time>
      </trkpt>
      <trkpt lat="45.964" lon="4.61382">
        <ele>362</ele>
        <time>2015-11-24T19:46:08Z</time>
      </trkpt>
      <trkpt lat="45.96409" lon="4.61403">
        <ele>361</ele>
        <time>2015-11-24T19:46:14Z</time>
      </trkpt>
      <trkpt lat="45.96419" lon="4.61425">
        <ele>359</ele>
        <time>2015-11-24T19:46:20Z</time>
      </trkpt>
      <trkpt lat="45.96429" lon="4.61448">
        <ele>357</ele>
        <time>2015-11-24T19:46:26Z</time>
      </trkpt>
      <trkpt lat="45.96442" lon="4.61483">
        <ele>354</ele>
        <time>2015-11-24T19:46:35Z</time>
      </trkpt>
      <trkpt lat="45.96447" lon="4.61494">
        <ele>353</ele>
        <time>2015-11-24T19:46:38Z</time>
      </trkpt>
      <trkpt lat="45.96457" lon="4.61514">
        <ele>351</ele>
        <time>2015-11-24T19:46:44Z</time>
      </trkpt>
      <trkpt lat="45.96471" lon="4.6154">
        <ele>349</ele>
        <time>2015-11-24T19:46:51Z</time>
      </trkpt>
      <trkpt lat="45.96482" lon="4.61556">
        <ele>348</ele>
        <time>2015-11-24T19:46:56Z</time>
      </trkpt>
      <trkpt lat="45.96491" lon="4.61579">
        <ele>348</ele>
        <time>2015-11-24T19:47:02Z</time>
      </trkpt>
      <trkpt lat="45.96501" lon="4.61599">
        <ele>347</ele>
        <time>2015-11-24T19:47:09Z</time>
      </trkpt>
      <trkpt lat="45.96513" lon="4.6162">
        <ele>346</ele>
        <time>2015-11-24T19:47:15Z</time>
      </trkpt>
      <trkpt lat="45.96525" lon="4.61636">
        <ele>344</ele>
        <time>2015-11-24T19:47:20Z</time>
      </trkpt>
      <trkpt lat="45.96539" lon="4.61654">
        <ele>342</ele>
        <time>2015-11-24T19:47:26Z</time>
      </trkpt>
      <trkpt lat="45.96558" lon="4.61679">
        <ele>340</ele>
        <time>2015-11-24T19:47:34Z</time>
      </trkpt>
      <trkpt lat="45.96567" lon="4.61692">
        <ele>340</ele>
        <time>2015-11-24T19:47:38Z</time>
      </trkpt>
      <trkpt lat="45.96579" lon="4.61712">
        <ele>339</ele>
        <time>2015-11-24T19:47:44Z</time>
      </trkpt>
      <trkpt lat="45.9659" lon="4.61732">
        <ele>338</ele>
        <time>2015-11-24T19:47:50Z</time>
      </trkpt>
      <trkpt lat="45.9661" lon="4.61775">
        <ele>336</ele>
        <time>2015-11-24T19:48:01Z</time>
      </trkpt>
      <trkpt lat="45.96611" lon="4.61786">
        <ele>335</ele>
        <time>2015-11-24T19:48:03Z</time>
      </trkpt>
      <trkpt lat="45.96619" lon="4.61808">
        <ele>334</ele>
        <time>2015-11-24T19:48:08Z</time>
      </trkpt>
      <trkpt lat="45.96623" lon="4.61836">
        <ele>332</ele>
        <time>2015-11-24T19:48:16Z</time>
      </trkpt>
      <trkpt lat="45.96626" lon="4.61865">
        <ele>331</ele>
        <time>2015-11-24T19:48:22Z</time>
      </trkpt>
      <trkpt lat="45.96633" lon="4.61882">
        <ele>330</ele>
        <time>2015-11-24T19:48:26Z</time>
      </trkpt>
      <trkpt lat="45.9665" lon="4.61931">
        <ele>329</ele>
        <time>2015-11-24T19:48:36Z</time>
      </trkpt>
      <trkpt lat="45.96652" lon="4.61939">
        <ele>329</ele>
        <time>2015-11-24T19:48:38Z</time>
      </trkpt>
      <trkpt lat="45.96658" lon="4.61965">
        <ele>329</ele>
        <time>2015-11-24T19:48:44Z</time>
      </trkpt>
      <trkpt lat="45.96665" lon="4.61998">
        <ele>328</ele>
        <time>2015-11-24T19:48:51Z</time>
      </trkpt>
      <trkpt lat="45.9667" lon="4.62023">
        <ele>327</ele>
        <time>2015-11-24T19:48:57Z</time>
      </trkpt>
      <trkpt lat="45.96672" lon="4.62044">
        <ele>325</ele>
        <time>2015-11-24T19:49:02Z</time>
      </trkpt>
      <trkpt lat="45.96674" lon="4.62088">
        <ele>322</ele>
        <time>2015-11-24T19:49:12Z</time>
      </trkpt>
      <trkpt lat="45.96672" lon="4.62096">
        <ele>322</ele>
        <time>2015-11-24T19:49:14Z</time>
      </trkpt>
      <trkpt lat="45.9667" lon="4.62123">
        <ele>321</ele>
        <time>2015-11-24T19:49:20Z</time>
      </trkpt>
      <trkpt lat="45.96666" lon="4.62158">
        <ele>321</ele>
        <time>2015-11-24T19:49:28Z</time>
      </trkpt>
      <trkpt lat="45.96664" lon="4.62179">
        <ele>321</ele>
        <time>2015-11-24T19:49:32Z</time>
      </trkpt>
      <trkpt lat="45.96659" lon="4.62219">
        <ele>319</ele>
        <time>2015-11-24T19:49:39Z</time>
      </trkpt>
      <trkpt lat="45.96652" lon="4.62241">
        <ele>319</ele>
        <time>2015-11-24T19:49:45Z</time>
      </trkpt>
      <trkpt lat="45.96648" lon="4.62278">
        <ele>318</ele>
        <time>2015-11-24T19:49:54Z</time>
      </trkpt>
      <trkpt lat="45.96645" lon="4.62289">
        <ele>317</ele>
        <time>2015-11-24T19:49:57Z</time>
      </trkpt>
      <trkpt lat="45.96631" lon="4.62308">
        <ele>318</ele>
        <time>2015-11-24T19:50:05Z</time>
      </trkpt>
    </trkseg>
  </trk>
</gpx>